createdAt,value
2017-08-24T00:00:21.035Z,98.40
2017-08-24T00:02:49.310Z,98.50
2017-08-24T00:05:17.598Z,98.50
2017-08-24T00:07:45.920Z,98.30
2017-08-24T00:10:14.204Z,98.30
2017-08-24T00:12:42.487Z,98.20
2017-08-24T00:15:10.794Z,98.20
2017-08-24T00:17:39.080Z,98.40
2017-08-24T00:20:07.409Z,98.30
2017-08-24T00:22:35.695Z,98.20
2017-08-24T00:25:04.029Z,98.10
2017-08-24T00:27:32.356Z,98.00
2017-08-24T00:30:00.647Z,98.10
2017-08-24T00:32:28.937Z,98.30
2017-08-24T00:34:57.255Z,98.40
2017-08-24T00:37:25.570Z,98.70
2017-08-24T00:39:53.915Z,98.40
2017-08-24T00:42:22.213Z,98.30
2017-08-24T00:44:50.495Z,98.10
2017-08-24T00:47:18.806Z,98.10
2017-08-24T00:49:47.134Z,98.00
2017-08-24T00:52:15.415Z,98.40
2017-08-24T00:54:43.741Z,98.20
2017-08-24T00:57:12.134Z,98.20
2017-08-24T00:59:40.433Z,98.40
2017-08-24T01:02:08.738Z,98.40
2017-08-24T01:04:37.044Z,98.40
2017-08-24T01:07:05.354Z,98.60
2017-08-24T01:09:33.645Z,98.40
2017-08-24T01:12:01.960Z,98.00
2017-08-24T01:14:30.283Z,97.80
2017-08-24T01:16:58.559Z,98.00
2017-08-24T01:19:26.956Z,98.00
2017-08-24T01:21:55.285Z,98.20
2017-08-24T01:24:23.586Z,98.00
2017-08-24T01:26:51.862Z,98.10
2017-08-24T01:29:20.195Z,98.00
2017-08-24T01:31:48.496Z,98.20
2017-08-24T01:34:16.788Z,98.20
2017-08-24T01:36:45.099Z,98.20
2017-08-24T01:39:13.470Z,98.20
2017-08-24T01:41:41.789Z,98.10
2017-08-24T01:44:10.077Z,97.90
2017-08-24T01:46:38.408Z,98.00
2017-08-24T01:49:06.700Z,98.00
2017-08-24T01:51:34.992Z,98.10
2017-08-24T01:54:03.408Z,97.90
2017-08-24T01:56:31.740Z,98.00
2017-08-24T01:59:00.047Z,98.00
2017-08-24T02:01:28.419Z,98.00
2017-08-24T02:03:56.724Z,97.90
2017-08-24T02:06:25.030Z,97.80
2017-08-24T02:08:53.334Z,98.00
2017-08-24T02:11:21.620Z,98.10
2017-08-24T02:13:50.034Z,97.80
2017-08-24T02:16:18.337Z,97.90
2017-08-24T02:18:46.631Z,97.90
2017-08-24T02:21:15.703Z,97.30
2017-08-24T02:23:43.996Z,97.30
2017-08-24T02:26:12.316Z,97.30
2017-08-24T02:28:40.599Z,97.60
2017-08-24T02:31:09.682Z,97.80
2017-08-24T02:33:38.080Z,97.80
2017-08-24T02:36:06.396Z,98.00
2017-08-24T02:38:35.487Z,98.40
2017-08-24T02:41:03.776Z,98.30
2017-08-24T02:43:32.100Z,98.20
2017-08-24T02:46:00.453Z,98.30
2017-08-24T02:48:28.785Z,97.90
2017-08-24T02:50:57.118Z,97.90
2017-08-24T02:53:25.402Z,97.90
2017-08-24T02:55:53.799Z,98.10
2017-08-24T02:58:22.092Z,97.90
2017-08-24T03:00:50.532Z,98.00
2017-08-24T03:03:18.860Z,98.10
2017-08-24T03:05:47.174Z,98.10
2017-08-24T03:08:15.560Z,98.20
2017-08-24T03:10:43.848Z,97.90
2017-08-24T03:13:12.169Z,97.60
2017-08-24T03:15:40.446Z,97.40
2017-08-24T03:18:08.767Z,97.50
2017-08-24T03:20:37.059Z,97.70
2017-08-24T03:23:05.347Z,97.60
2017-08-24T03:25:33.767Z,97.60
2017-08-24T03:28:02.060Z,98.10
2017-08-24T03:30:30.389Z,97.80
2017-08-24T03:32:58.673Z,97.80
2017-08-24T03:35:27.017Z,97.60
2017-08-24T03:37:55.300Z,98.20
2017-08-24T03:40:23.587Z,98.10
2017-08-24T03:42:51.903Z,98.20
2017-08-24T03:45:20.199Z,98.20
2017-08-24T03:47:48.484Z,98.20
2017-08-24T03:50:16.791Z,98.20
2017-08-24T03:52:45.066Z,98.30
2017-08-24T03:55:13.375Z,98.20
2017-08-24T03:57:41.669Z,98.50
2017-08-24T04:00:09.982Z,98.40
2017-08-24T04:02:38.259Z,98.60
2017-08-24T04:05:06.572Z,98.50
2017-08-24T04:07:34.874Z,98.50
2017-08-24T04:10:03.191Z,98.40
2017-08-24T04:12:31.506Z,98.40
2017-08-24T04:14:59.772Z,98.20
2017-08-24T04:17:28.250Z,98.20
2017-08-24T04:19:56.535Z,98.20
2017-08-24T04:22:24.844Z,98.00
2017-08-24T04:24:53.165Z,97.90
2017-08-24T04:27:21.463Z,98.10
2017-08-24T04:29:49.909Z,98.20
2017-08-24T04:32:18.196Z,98.00
2017-08-24T04:34:46.476Z,97.80
2017-08-24T04:37:14.790Z,98.00
2017-08-24T04:39:43.094Z,98.20
2017-08-24T04:42:11.370Z,98.00
2017-08-24T04:44:39.757Z,98.10
2017-08-24T04:47:08.126Z,98.50
2017-08-24T04:49:36.411Z,98.80
2017-08-24T04:52:04.735Z,98.10
2017-08-24T04:54:33.112Z,98.10
2017-08-24T04:57:01.450Z,98.00
2017-08-24T04:59:29.788Z,98.00
2017-08-24T05:01:58.071Z,98.00
2017-08-24T05:04:26.400Z,97.70
2017-08-24T05:06:54.761Z,97.50
2017-08-24T05:09:23.071Z,97.30
2017-08-24T05:11:51.397Z,97.60
2017-08-24T05:14:19.721Z,98.30
2017-08-24T05:16:48.035Z,98.60
2017-08-24T05:19:16.394Z,98.70
2017-08-24T05:21:44.715Z,98.50
2017-08-24T05:24:13.026Z,98.30
2017-08-24T05:26:41.307Z,98.40
2017-08-24T05:29:09.622Z,98.40
2017-08-24T05:31:37.953Z,98.40
2017-08-24T05:34:06.367Z,98.00
2017-08-24T05:36:34.741Z,98.40
2017-08-24T05:39:03.064Z,98.50
2017-08-24T05:41:31.506Z,98.30
2017-08-24T05:43:59.915Z,98.50
2017-08-24T05:46:28.238Z,98.90
2017-08-24T05:48:56.597Z,98.70
2017-08-24T05:51:24.979Z,98.20
2017-08-24T05:53:53.297Z,97.90
2017-08-24T05:56:21.616Z,97.50
2017-08-24T05:58:49.908Z,97.20
2017-08-24T06:01:18.234Z,97.40
2017-08-24T06:03:46.636Z,97.10
2017-08-24T06:06:14.926Z,97.20
2017-08-24T06:08:43.222Z,97.00
2017-08-24T06:11:11.584Z,97.30
2017-08-24T06:13:39.859Z,97.30
2017-08-24T06:16:08.186Z,96.90
2017-08-24T06:18:36.557Z,96.40
2017-08-24T06:21:04.848Z,95.60
2017-08-24T06:23:33.239Z,95.00
2017-08-24T06:26:01.708Z,94.80
2017-08-24T06:28:30.223Z,94.70
2017-08-24T06:30:58.640Z,94.20
2017-08-24T06:33:26.952Z,94.50
2017-08-24T06:35:55.308Z,94.80
2017-08-24T06:38:23.707Z,94.20
2017-08-24T06:40:52.092Z,93.80
2017-08-24T06:43:20.416Z,93.40
2017-08-24T06:45:48.777Z,93.20
2017-08-24T06:48:17.171Z,93.10
2017-08-24T06:50:45.565Z,92.40
2017-08-24T06:53:13.895Z,91.80
2017-08-24T06:55:42.236Z,92.20
2017-08-24T06:58:10.628Z,92.00
2017-08-24T07:00:38.915Z,91.90
2017-08-24T07:03:07.420Z,92.20
2017-08-24T07:05:35.699Z,92.00
2017-08-24T07:08:03.997Z,92.10
2017-08-24T07:10:32.392Z,91.20
2017-08-24T07:13:00.763Z,90.40
2017-08-24T07:15:29.060Z,90.40
2017-08-24T07:17:57.375Z,89.80
2017-08-24T07:20:25.650Z,86.80
2017-08-24T07:22:53.971Z,87.90
2017-08-24T07:25:22.324Z,88.00
2017-08-24T07:27:50.717Z,88.90
2017-08-24T07:30:19.101Z,89.30
2017-08-24T07:32:47.488Z,85.70
2017-08-24T07:35:15.779Z,84.30
2017-08-24T07:37:44.090Z,83.40
2017-08-24T07:40:12.451Z,81.60
2017-08-24T07:42:40.774Z,82.80
2017-08-24T07:45:09.904Z,83.40
2017-08-24T07:47:38.215Z,80.00
2017-08-24T07:50:06.607Z,82.80
2017-08-24T07:52:34.883Z,79.90
2017-08-24T07:55:03.220Z,81.70
2017-08-24T07:57:31.502Z,80.30
2017-08-24T07:59:59.787Z,78.50
2017-08-24T08:02:28.094Z,78.80
2017-08-24T08:04:56.403Z,78.30
2017-08-24T08:07:24.695Z,79.70
2017-08-24T08:09:52.974Z,79.70
2017-08-24T08:12:21.343Z,77.50
2017-08-24T08:14:49.645Z,76.40
2017-08-24T08:17:17.937Z,76.00
2017-08-24T08:19:46.315Z,76.00
2017-08-24T08:22:14.605Z,74.60
2017-08-24T08:24:43.043Z,77.10
2017-08-24T08:27:11.346Z,74.80
2017-08-24T08:29:39.673Z,74.60
2017-08-24T08:32:07.983Z,73.40
2017-08-24T08:34:36.602Z,72.00
2017-08-24T08:37:04.948Z,73.30
2017-08-24T08:39:33.224Z,70.50
2017-08-24T08:42:01.530Z,70.30
2017-08-24T08:44:29.874Z,71.50
2017-08-24T08:46:58.207Z,71.10
2017-08-24T08:49:26.554Z,69.40
2017-08-24T08:51:55.188Z,70.80
2017-08-24T08:54:23.508Z,70.70
2017-08-24T08:56:51.783Z,66.00
2017-08-24T08:59:20.170Z,67.80
2017-08-24T09:01:48.450Z,68.60
2017-08-24T09:04:16.727Z,66.50
2017-08-24T09:06:45.047Z,64.90
2017-08-24T09:09:13.332Z,68.20
2017-08-24T09:11:41.653Z,64.60
2017-08-24T09:14:10.004Z,66.70
2017-08-24T09:16:38.378Z,69.20
2017-08-24T09:19:06.700Z,67.80
2017-08-24T09:21:35.762Z,64.70
2017-08-24T09:24:04.079Z,64.70
2017-08-24T09:26:32.479Z,62.60
2017-08-24T09:29:00.778Z,63.90
2017-08-24T09:31:29.147Z,63.70
2017-08-24T09:33:57.541Z,63.70
2017-08-24T09:36:25.817Z,61.90
2017-08-24T09:38:54.116Z,62.00
2017-08-24T09:41:22.426Z,61.10
2017-08-24T09:43:50.717Z,61.20
2017-08-24T09:46:19.088Z,64.40
2017-08-24T09:48:47.480Z,64.40
2017-08-24T09:51:15.767Z,65.30
2017-08-24T09:53:44.160Z,58.40
2017-08-24T09:56:12.449Z,60.10
2017-08-24T09:58:40.737Z,59.70
2017-08-24T10:01:09.051Z,60.40
2017-08-24T10:03:37.367Z,59.50
2017-08-24T10:06:05.664Z,58.70
2017-08-24T10:08:33.951Z,60.70
2017-08-24T10:11:02.284Z,58.70
2017-08-24T10:13:30.559Z,58.80
2017-08-24T10:15:58.834Z,58.10
2017-08-24T10:18:27.160Z,57.20
2017-08-24T10:20:55.535Z,57.80
2017-08-24T10:23:23.829Z,57.90
2017-08-24T10:25:52.229Z,59.40
2017-08-24T10:28:20.545Z,58.80
2017-08-24T10:30:48.912Z,58.90
2017-08-24T10:33:17.257Z,59.00
2017-08-24T10:35:45.553Z,57.80
2017-08-24T10:38:13.869Z,59.50
2017-08-24T10:40:42.146Z,58.50
2017-08-24T10:43:10.460Z,61.10
2017-08-24T10:45:38.767Z,59.20
2017-08-24T10:48:07.112Z,59.70
2017-08-24T10:50:35.402Z,60.70
2017-08-24T10:53:03.711Z,62.60
2017-08-24T10:55:32.109Z,59.80
2017-08-24T10:58:00.382Z,60.90
2017-08-24T11:00:28.672Z,62.90
2017-08-24T11:02:57.044Z,60.80
2017-08-24T11:05:25.327Z,61.80
2017-08-24T11:07:53.611Z,64.50
2017-08-24T11:10:22.025Z,63.10
2017-08-24T11:12:50.307Z,64.80
2017-08-24T11:15:18.624Z,63.30
2017-08-24T11:17:46.916Z,64.60
2017-08-24T11:20:15.210Z,65.80
2017-08-24T11:22:43.520Z,66.70
2017-08-24T11:25:11.803Z,64.40
2017-08-24T11:27:40.164Z,66.60
2017-08-24T11:30:08.485Z,67.30
2017-08-24T11:35:11.385Z,61.80
2017-08-24T11:37:39.702Z,62.80
2017-08-24T11:40:08.749Z,62.60
2017-08-24T11:42:37.027Z,62.50
2017-08-24T11:45:05.350Z,62.70
2017-08-24T11:47:33.652Z,62.00
2017-08-24T11:50:02.036Z,62.00
2017-08-24T11:52:30.361Z,63.00
2017-08-24T11:54:58.666Z,59.80
2017-08-24T11:57:26.985Z,60.20
2017-08-24T11:59:55.305Z,59.60
2017-08-24T12:02:23.597Z,59.70
2017-08-24T12:04:51.981Z,59.10
2017-08-24T12:07:20.290Z,59.40
2017-08-24T12:09:48.572Z,57.30
2017-08-24T12:12:16.954Z,59.30
2017-08-24T12:14:45.331Z,56.50
2017-08-24T12:17:13.648Z,55.70
2017-08-24T12:19:42.737Z,55.20
2017-08-24T12:22:11.057Z,55.00
2017-08-24T12:24:39.372Z,57.00
2017-08-24T12:27:07.669Z,56.30
2017-08-24T12:29:36.083Z,58.10
2017-08-24T12:32:04.391Z,55.40
2017-08-24T12:34:32.702Z,55.10
2017-08-24T12:37:01.011Z,57.80
2017-08-24T12:39:29.310Z,56.20
2017-08-24T12:41:57.621Z,53.30
2017-08-24T12:44:25.918Z,53.70
2017-08-24T12:46:54.240Z,54.50
2017-08-24T12:49:22.622Z,57.60
2017-08-24T12:51:51.010Z,55.40
2017-08-24T12:54:19.318Z,51.70
2017-08-24T12:56:48.395Z,58.70
2017-08-24T12:59:16.797Z,58.60
2017-08-24T13:01:45.171Z,54.20
2017-08-24T13:04:13.571Z,54.00
2017-08-24T13:06:41.865Z,54.00
2017-08-24T13:09:10.189Z,53.40
2017-08-24T13:11:38.545Z,54.70
2017-08-24T13:14:06.918Z,53.50
2017-08-24T13:16:35.211Z,55.80
2017-08-24T13:19:03.519Z,55.80
2017-08-24T13:21:31.798Z,57.60
2017-08-24T13:24:00.187Z,55.80
2017-08-24T13:26:28.570Z,56.90
2017-08-24T13:28:56.869Z,57.60
2017-08-24T13:31:25.251Z,57.10
2017-08-24T13:33:53.557Z,57.80
2017-08-24T13:36:21.855Z,57.00
2017-08-24T13:38:50.213Z,58.90
2017-08-24T13:41:18.495Z,59.30
2017-08-24T13:43:46.804Z,58.30
2017-08-24T13:46:15.111Z,59.50
2017-08-24T13:48:43.494Z,61.20
2017-08-24T13:51:11.794Z,63.20
2017-08-24T13:53:40.112Z,61.50
2017-08-24T13:56:08.404Z,64.50
2017-08-24T13:58:36.688Z,62.30
2017-08-24T14:01:05.026Z,63.90
2017-08-24T14:03:33.423Z,61.90
2017-08-24T14:06:01.744Z,62.90
2017-08-24T14:08:30.108Z,58.30
2017-08-24T14:10:58.499Z,60.10
2017-08-24T14:13:26.884Z,62.40
2017-08-24T14:15:55.180Z,59.90
2017-08-24T14:18:23.508Z,59.10
2017-08-24T14:20:51.855Z,58.40
2017-08-24T14:23:20.147Z,59.90
2017-08-24T14:25:48.450Z,60.00
2017-08-24T14:28:16.829Z,60.10
2017-08-24T14:30:45.152Z,61.90
2017-08-24T14:33:13.435Z,62.80
2017-08-24T14:35:41.750Z,66.00
2017-08-24T14:38:10.097Z,65.40
2017-08-24T14:40:38.379Z,66.80
2017-08-24T14:43:06.691Z,66.00
2017-08-24T14:45:35.012Z,69.00
2017-08-24T14:48:03.326Z,68.30
2017-08-24T14:50:31.635Z,69.30
2017-08-24T14:52:59.937Z,66.20
2017-08-24T14:55:28.316Z,67.00
2017-08-24T14:57:56.604Z,67.70
2017-08-24T15:00:24.999Z,67.40
2017-08-24T15:02:53.310Z,64.60
2017-08-24T15:05:21.596Z,63.80
2017-08-24T15:07:49.904Z,64.10
2017-08-24T15:10:18.192Z,65.50
2017-08-24T15:12:46.549Z,66.20
2017-08-24T15:15:14.860Z,66.50
2017-08-24T15:17:43.223Z,67.70
2017-08-24T15:20:11.612Z,69.70
2017-08-24T15:22:39.904Z,71.40
2017-08-24T15:25:08.215Z,70.70
2017-08-24T15:27:36.544Z,71.30
2017-08-24T15:30:04.863Z,71.50
2017-08-24T15:32:33.556Z,72.70
2017-08-24T15:35:01.873Z,73.30
2017-08-24T15:37:30.164Z,74.20
2017-08-24T15:39:58.471Z,73.60
2017-08-24T15:42:26.765Z,73.90
2017-08-24T15:44:55.077Z,75.40
2017-08-24T15:47:23.396Z,75.80
2017-08-24T15:49:51.712Z,74.50
2017-08-24T15:52:20.079Z,74.90
2017-08-24T15:54:48.400Z,74.10
2017-08-24T15:57:16.706Z,71.20
2017-08-24T15:59:45.066Z,69.20
2017-08-24T16:02:13.380Z,67.60
2017-08-24T16:04:41.696Z,64.90
2017-08-24T16:07:10.000Z,64.40
2017-08-24T16:09:38.417Z,64.10
2017-08-24T16:12:06.708Z,67.60
2017-08-24T16:14:34.987Z,68.90
2017-08-24T16:17:03.322Z,70.00
2017-08-24T16:19:31.674Z,70.50
2017-08-24T16:22:00.021Z,72.90
2017-08-24T16:24:28.304Z,71.10
2017-08-24T16:26:56.597Z,70.30
2017-08-24T16:29:24.980Z,70.20
2017-08-24T16:31:53.304Z,70.20
2017-08-24T16:34:21.607Z,67.90
2017-08-24T16:36:50.023Z,68.70
2017-08-24T16:39:19.090Z,70.50
2017-08-24T16:41:47.363Z,70.30
2017-08-24T16:44:15.739Z,69.00
2017-08-24T16:46:44.393Z,69.30
2017-08-24T16:49:12.706Z,70.40
2017-08-24T16:51:41.074Z,71.80
2017-08-24T16:54:09.383Z,72.10
2017-08-24T16:56:38.468Z,75.00
2017-08-24T16:59:06.871Z,74.90
2017-08-24T17:01:35.250Z,74.80
2017-08-24T17:04:03.576Z,77.00
2017-08-24T17:06:31.868Z,75.80
2017-08-24T17:09:00.315Z,77.60
2017-08-24T17:11:28.598Z,78.50
2017-08-24T17:13:56.898Z,80.50
2017-08-24T17:16:25.306Z,80.50
2017-08-24T17:18:53.705Z,81.20
2017-08-24T17:21:22.067Z,82.70
2017-08-24T17:23:50.395Z,83.50
2017-08-24T17:26:18.821Z,84.40
2017-08-24T17:28:47.115Z,85.80
2017-08-24T17:31:15.409Z,86.10
2017-08-24T17:33:43.754Z,86.90
2017-08-24T17:36:12.806Z,88.60
2017-08-24T17:38:41.103Z,88.60
2017-08-24T17:41:09.467Z,89.50
2017-08-24T17:43:37.788Z,89.80
2017-08-24T17:46:06.128Z,90.20
2017-08-24T17:48:34.420Z,90.50
2017-08-24T17:51:02.749Z,90.40
2017-08-24T17:53:31.076Z,90.60
2017-08-24T17:55:59.536Z,91.20
2017-08-24T17:58:27.844Z,91.40
2017-08-24T18:00:56.161Z,91.80
2017-08-24T18:03:24.485Z,91.80
2017-08-24T18:05:52.871Z,92.20
2017-08-24T18:08:21.953Z,92.20
2017-08-24T18:10:50.253Z,92.20
2017-08-24T18:13:18.596Z,92.90
2017-08-24T18:15:46.914Z,93.00
2017-08-24T18:18:15.273Z,93.20
2017-08-24T18:20:43.562Z,93.20
2017-08-24T18:23:11.917Z,92.80
2017-08-24T18:25:40.300Z,93.40
2017-08-24T18:28:08.579Z,93.90
2017-08-24T18:30:36.941Z,94.10
2017-08-24T18:33:05.294Z,94.20
2017-08-24T18:35:33.710Z,94.50
2017-08-24T18:38:02.187Z,94.40
2017-08-24T18:40:30.541Z,94.50
2017-08-24T18:42:58.841Z,94.60
2017-08-24T18:45:27.391Z,94.80
2017-08-24T18:47:55.768Z,95.00
2017-08-24T18:50:24.112Z,95.10
2017-08-24T18:52:52.412Z,95.20
2017-08-24T18:55:20.855Z,95.20
2017-08-24T18:57:49.175Z,95.30
2017-08-24T19:00:17.476Z,95.50
2017-08-24T19:02:45.815Z,95.70
2017-08-24T19:05:14.135Z,95.80
2017-08-24T19:07:42.439Z,96.00
2017-08-24T19:10:10.730Z,96.00
2017-08-24T19:12:39.046Z,96.00
2017-08-24T19:15:07.473Z,96.00
2017-08-24T19:17:35.773Z,96.10
2017-08-24T19:20:04.859Z,96.30
2017-08-24T19:22:33.189Z,96.30
2017-08-24T19:25:01.523Z,96.40
2017-08-24T19:27:29.819Z,96.30
2017-08-24T19:29:58.411Z,96.50
2017-08-24T19:32:26.737Z,96.50
2017-08-24T19:34:55.837Z,96.60
2017-08-24T19:37:24.207Z,96.70
2017-08-24T19:39:52.516Z,97.00
2017-08-24T19:42:20.858Z,97.30
2017-08-24T19:44:49.192Z,98.00
2017-08-24T19:47:17.497Z,97.80
2017-08-24T19:49:46.587Z,98.00
2017-08-24T19:52:14.977Z,97.90
2017-08-24T19:54:43.280Z,98.00
2017-08-24T19:57:11.598Z,98.10
2017-08-24T19:59:39.933Z,98.10
2017-08-24T20:02:08.265Z,98.20
2017-08-24T20:04:36.564Z,98.40
2017-08-24T20:07:04.900Z,98.70
2017-08-24T20:09:33.192Z,98.90
2017-08-24T20:12:01.520Z,99.00
2017-08-24T20:14:29.994Z,99.00
2017-08-24T20:16:59.088Z,99.10
2017-08-24T20:19:27.392Z,99.00
2017-08-24T20:21:55.721Z,99.30
2017-08-24T20:24:24.072Z,99.50
2017-08-24T20:26:52.442Z,99.20
2017-08-24T20:29:20.788Z,99.50
2017-08-24T20:31:50.258Z,99.50
2017-08-24T20:34:19.360Z,99.40
2017-08-24T20:36:47.697Z,99.60
2017-08-24T20:39:16.000Z,99.60
2017-08-24T20:41:44.294Z,99.80
2017-08-24T20:44:12.644Z,99.70
2017-08-24T20:46:41.727Z,99.90
2017-08-24T20:49:10.061Z,99.90
2017-08-24T20:51:38.408Z,99.90
2017-08-24T20:54:06.704Z,99.90
2017-08-24T20:56:35.000Z,99.90
2017-08-24T20:59:03.348Z,99.90
2017-08-24T21:01:31.670Z,99.90
2017-08-24T21:04:00.004Z,99.90
2017-08-24T21:06:28.338Z,99.90
2017-08-24T21:08:56.629Z,99.90
2017-08-24T21:11:24.956Z,99.90
2017-08-24T21:13:53.285Z,99.90
2017-08-24T21:16:21.593Z,99.90
2017-08-24T21:18:49.922Z,99.90
2017-08-24T21:21:18.224Z,99.90
2017-08-24T21:23:46.551Z,99.90
2017-08-24T21:26:14.910Z,99.90
2017-08-24T21:28:43.199Z,99.90
2017-08-24T21:31:11.519Z,99.90
2017-08-24T21:33:40.099Z,99.90
2017-08-24T21:36:08.482Z,99.90
2017-08-24T21:38:36.774Z,99.90
2017-08-24T21:41:05.079Z,99.90
2017-08-24T21:43:33.416Z,99.90
2017-08-24T21:46:01.721Z,99.90
2017-08-24T21:48:30.048Z,99.90
2017-08-24T21:50:58.390Z,99.90
2017-08-24T21:53:26.681Z,99.90
2017-08-24T21:55:55.012Z,99.90
2017-08-24T21:58:23.350Z,99.90
2017-08-24T22:00:51.652Z,99.90
2017-08-24T22:03:19.988Z,99.90
2017-08-24T22:05:48.279Z,99.90
2017-08-24T22:08:16.603Z,99.90
2017-08-24T22:10:45.184Z,99.90
2017-08-24T22:13:13.504Z,99.90
2017-08-24T22:15:41.800Z,99.90
2017-08-24T22:18:10.131Z,99.90
2017-08-24T22:20:38.442Z,99.90
2017-08-24T22:23:06.758Z,99.90
2017-08-24T22:25:35.835Z,99.90
2017-08-24T22:28:04.206Z,99.90
2017-08-24T22:30:32.495Z,99.90
2017-08-24T22:33:00.786Z,99.90
2017-08-24T22:35:29.111Z,99.90
2017-08-24T22:37:57.421Z,99.90
2017-08-24T22:40:25.753Z,99.90
2017-08-24T22:42:54.052Z,99.90
2017-08-24T22:45:22.389Z,99.90
2017-08-24T22:47:50.692Z,99.90
2017-08-24T22:50:19.029Z,99.90
2017-08-24T22:52:47.369Z,99.90
2017-08-24T22:55:21.388Z,99.90
2017-08-24T22:57:55.320Z,99.90
2017-08-24T23:00:29.275Z,99.90
2017-08-24T23:03:03.302Z,99.90
2017-08-24T23:05:31.601Z,99.90
2017-08-24T23:07:59.932Z,99.90
2017-08-24T23:10:28.237Z,99.90
2017-08-24T23:12:56.543Z,99.90
2017-08-24T23:15:24.861Z,99.90
2017-08-24T23:17:53.160Z,99.90
2017-08-24T23:20:21.479Z,99.90
2017-08-24T23:22:49.818Z,99.90
2017-08-24T23:25:18.135Z,99.90
2017-08-24T23:27:46.463Z,99.90
2017-08-24T23:30:14.769Z,99.90
2017-08-24T23:32:43.106Z,99.90
2017-08-24T23:35:11.404Z,99.90
2017-08-24T23:37:39.741Z,99.90
2017-08-24T23:40:08.040Z,99.90
2017-08-24T23:42:36.369Z,99.90
2017-08-24T23:45:04.682Z,99.90
2017-08-24T23:47:32.999Z,99.90
2017-08-24T23:50:01.290Z,99.90
2017-08-24T23:52:29.619Z,99.90
2017-08-24T23:54:57.930Z,99.90
2017-08-24T23:57:27.152Z,99.90
2017-08-24T23:59:55.493Z,99.90
